Aérodrome :







RETROUVEZ-NOUS SUR...

 
LOGIN :

S'inscrire | Disclaimer

   EN    FR    IT 

 









Légende :    VFR   VFR Marginal   IFR   IFR Intensif   IFR Très Intensif
Visi : 
Plafond : 
>= 8 km
>= 3000ft
5 à 8 km
1000 à 3000 ft
1500m à 5 km
500 à 1000 ft
800 à 1500m
200 à 500 ft
< 800m
< 200 ft
Symboles :   Orages  Brouillard  Fortes neiges  Fortes précipitations  Vent > 20 kt






- Altitude de l'aérodrome : 1442 ft
- Code IATA : ZUM


CZUM - Churchill Falls

DERNIER METAR :
  • 102338Z AUTO 28011G21KT 6SM -SN SCT014 BKN020 OVC024 M02/M03 A2906 RMK SLP869

METARs EXPIRÉS :
  • 102319Z AUTO 25008KT 180V270 2 1/4SM -SN SCT012 BKN022 BKN029 BKN085 M02/M03 A2904 RMK PRESRR SLP864
  • 102317Z AUTO VRB05KT 4SM -SN FEW012 SCT018 BKN025 BKN085 M02/M02 A2903 RMK PRESRR SLP861
  • 102253Z AUTO 19005KT 170V230 9SM SCT012 SCT019 BKN030 BKN085 M02/M02 A2901 RMK SLP854
  • 102239Z AUTO 17006KT 6SM -SN BKN014 BKN019 OVC032 M03/M04 A2902 RMK SLP856
  • 102237Z AUTO 17005KT 3SM -SN BKN014 BKN019 OVC032 M03/M04 A2902 RMK SLP856
  • 102218Z AUTO 15003KT 6SM -SN SCT013 BKN023 OVC034 M04/M05 A2902 RMK SLP859
  • 102214Z AUTO 13004KT 4SM -SN FEW013 BKN023 BKN034 OVC047 M04/M05 A2902 RMK SLP858
  • 102205Z AUTO 15004KT 7SM -SN SCT018 BKN026 BKN033 OVC047 M04/M05 A2902 RMK SLP859
  • 102143Z AUTO 16005KT 110V230 6SM -SN FEW015 BKN023 BKN029 OVC043 M05/M06 A2903 RMK SLP862
  • 102100Z AUTO 13005KT 9SM FEW029 BKN046 M06/M08 A2904 RMK SLP867

TAF TAF CZUM
Valide du 10 à 20h jusqu'au 11 à 08h UTC


101938Z 1020/1108 13005KT 6SM -SN SCT020 OVC060
TEMPO 1020/1101 4SM -SN BKN020 OVC060
BECMG 1020/1022 27010G20KT
FM110100 28012G22KT P6SM BKN020
TEMPO 1101/1108 BKN030
PROB30 1101/1108 1SM BLSN RMK FCST BASED ON AUTO OBS. NXT FCST BY 110200Z



MET'MAP, la Météo Aéronautique d'un coup d'oeil ! - Copyright ORBIFLY Décembre 2007 - Disclaimer

ORBIFLY MET'MAP TEAM :

Programmation & Développement : Alexandra Zaïnal
Sur une idée originale de : Baudouin d'Aumeries
Assistance à la programmation : Marc-Olivier Méhu
Soutien technique & logistique : Manuel Goepfert

Contact : metmap@orbifly.com




SOURCES & CREDITS :

   NOAA